Time;durP1;ratioP1;P1;durP2;ratioP2;P2;SDS_P1;SDS_P2;PMS_P1;PMS_P2;Temp;Humidity;BMP_temperature;BMP_pressure;BME280_temperature;BME280_humidity;BME280_pressure;Samples;Min_cycle;Max_cycle;Signal;HPM_P1;HPM_P2
2022/04/25 00:00:56;;;;;;;11.65;5.43;;;;;;;8.36;67.34;100814.56;5035264;28;20445;-79
2022/04/25 00:03:22;;;;;;;11.27;4.97;;;;;;;8.30;67.65;100812.00;5041383;28;20037;-79
2022/04/25 00:05:47;;;;;;;11.65;5.00;;;;;;;8.28;67.59;100810.28;5051057;28;20044;-79
2022/04/25 00:08:13;;;;;;;10.65;5.53;;;;;;;8.22;68.10;100813.00;5032426;28;20029;-79
2022/04/25 00:10:39;;;;;;;9.18;5.40;;;;;;;8.17;68.03;100807.78;5030637;28;20397;-79
2022/04/25 00:13:05;;;;;;;9.75;4.93;;;;;;;8.15;67.96;100812.19;5029270;28;20045;-79
2022/04/25 00:15:30;;;;;;;10.57;5.50;;;;;;;8.11;67.94;100821.03;5032005;28;20033;-79
2022/04/25 00:17:56;;;;;;;12.18;5.13;;;;;;;8.08;68.53;100824.56;4997400;28;20092;-79
2022/04/25 00:20:21;;;;;;;9.85;5.05;;;;;;;8.06;68.10;100822.84;5048902;28;20052;-79
2022/04/25 00:22:47;;;;;;;9.52;4.82;;;;;;;8.04;69.28;100819.38;5033573;28;20041;-79
2022/04/25 00:25:13;;;;;;;10.23;5.28;;;;;;;8.00;69.33;100823.81;5030917;28;20080;-79
2022/04/25 00:27:39;;;;;;;13.18;5.70;;;;;;;7.97;69.05;100821.22;5030125;28;20113;-79
2022/04/25 00:30:06;;;;;;;11.68;5.63;;;;;;;7.96;69.63;100822.97;5013765;28;20049;-79
2022/04/25 00:32:31;;;;;;;10.15;5.50;;;;;;;7.95;68.79;100828.25;5013405;28;20041;-79
2022/04/25 00:34:57;;;;;;;11.93;5.43;;;;;;;7.93;69.05;100825.63;5013620;28;20373;-79
2022/04/25 00:37:22;;;;;;;10.10;5.43;;;;;;;7.88;69.67;100826.59;5030082;28;20126;-79
2022/04/25 00:39:48;;;;;;;11.40;5.10;;;;;;;7.86;69.73;100828.34;5031381;28;20033;-79
2022/04/25 00:42:14;;;;;;;9.25;5.13;;;;;;;7.84;69.29;100827.50;5031174;28;20428;-79
2022/04/25 00:44:41;;;;;;;10.20;6.03;;;;;;;7.82;69.55;100819.63;5029956;28;20079;-79
2022/04/25 00:47:09;;;;;;;17.92;5.75;;;;;;;7.81;70.15;100822.25;5031188;28;20430;-78
2022/04/25 00:49:35;;;;;;;9.77;5.65;;;;;;;7.78;70.31;100833.72;5031194;28;20037;-79
2022/04/25 00:52:00;;;;;;;16.15;6.03;;;;;;;7.74;70.83;100824.97;5013381;28;20459;-79
2022/04/25 00:54:26;;;;;;;14.48;6.15;;;;;;;7.70;71.18;100822.38;5029579;28;20129;-79
2022/04/25 00:56:51;;;;;;;11.02;5.35;;;;;;;7.62;71.28;100819.84;5013216;28;20120;-79
2022/04/25 00:59:19;;;;;;;11.25;6.05;;;;;;;7.59;70.80;100826.88;4996768;28;20402;-79
2022/04/25 01:01:45;;;;;;;10.20;5.68;;;;;;;7.59;71.78;100824.25;5033797;28;20357;-79
2022/04/25 01:04:11;;;;;;;9.07;5.40;;;;;;;7.58;71.72;100823.38;5047630;28;20040;-79
2022/04/25 01:06:37;;;;;;;11.38;6.43;;;;;;;7.56;71.36;100821.66;5044976;28;20029;-79
2022/04/25 01:09:04;;;;;;;8.55;6.10;;;;;;;7.51;71.71;100819.06;5012890;28;20358;-79
2022/04/25 01:11:29;;;;;;;10.30;6.20;;;;;;;7.47;72.10;100814.72;5013249;28;20038;-79
2022/04/25 01:13:55;;;;;;;10.98;5.88;;;;;;;7.42;72.60;100820.03;5012680;28;20046;-79
2022/04/25 01:16:20;;;;;;;14.73;6.40;;;;;;;7.40;72.54;100821.78;5031064;28;20044;-79
2022/04/25 01:18:46;;;;;;;11.18;5.47;;;;;;;7.38;72.29;100826.19;5017009;28;20056;-79
2022/04/25 01:21:14;;;;;;;10.68;6.28;;;;;;;7.34;72.54;100827.09;5032983;28;20120;-79
2022/04/25 01:29:09;;;;;;;12.18;6.32;;;;;;;7.24;72.67;100817.53;5029094;28;20052;-80
2022/04/25 01:31:35;;;;;;;9.05;6.57;;;;;;;7.19;72.68;100814.94;5012922;28;20472;-80
2022/04/25 01:34:00;;;;;;;12.45;6.28;;;;;;;7.16;73.55;100816.75;5030550;28;20084;-80
2022/04/25 01:36:26;;;;;;;12.23;5.93;;;;;;;7.15;73.06;100817.63;5029263;28;20447;-80
2022/04/25 01:38:53;;;;;;;20.10;7.22;;;;;;;7.12;73.54;100813.25;5030309;28;20025;-80
2022/04/25 01:41:18;;;;;;;17.88;7.05;;;;;;;7.09;73.20;100816.78;5030573;28;20422;-80
2022/04/25 01:43:44;;;;;;;14.27;6.05;;;;;;;7.09;72.94;100815.91;5028968;28;20108;-80
2022/04/25 01:46:10;;;;;;;11.63;6.47;;;;;;;7.10;72.86;100818.53;5029009;28;20045;-80
2022/04/25 01:48:35;;;;;;;11.43;7.63;;;;;;;7.08;73.41;100819.44;5030291;28;20537;-80
2022/04/25 01:51:02;;;;;;;8.73;6.43;;;;;;;7.05;73.90;100820.34;5029043;28;20500;-80
2022/04/25 01:53:28;;;;;;;13.63;7.20;;;;;;;7.02;73.53;100819.47;5028786;28;20132;-80
2022/04/25 01:55:53;;;;;;;16.38;7.00;;;;;;;6.99;73.86;100823.00;5029122;28;20461;-80
2022/04/25 01:58:19;;;;;;;12.02;7.00;;;;;;;6.97;74.16;100823.91;5012060;28;20050;-80
2022/04/25 02:00:45;;;;;;;11.35;6.32;;;;;;;6.94;73.65;100821.28;5033404;28;20532;-80
2022/04/25 02:03:11;;;;;;;17.40;7.28;;;;;;;6.91;73.77;100816.94;5040004;28;20035;-80
2022/04/25 02:05:36;;;;;;;11.35;6.70;;;;;;;6.89;73.89;100827.44;5049089;28;20449;-80
2022/04/25 02:08:02;;;;;;;13.18;6.72;;;;;;;6.87;73.89;100813.47;5032351;28;20037;-80
2022/04/25 02:10:28;;;;;;;10.25;6.65;;;;;;;6.83;73.90;100822.25;5029089;28;20446;-80
2022/04/25 02:12:54;;;;;;;13.27;6.57;;;;;;;6.82;74.06;100824.88;5030033;28;20047;-79
2022/04/25 02:15:20;;;;;;;10.60;6.72;;;;;;;6.80;74.90;100819.66;5030548;28;20095;-80
2022/04/25 02:17:45;;;;;;;12.05;7.32;;;;;;;6.78;74.45;100824.03;5030244;28;20476;-79
2022/04/25 02:20:12;;;;;;;15.82;7.57;;;;;;;6.73;75.01;100814.44;5028721;28;20116;-80
2022/04/25 02:22:39;;;;;;;14.57;7.15;;;;;;;6.71;75.05;100814.44;5048594;28;20045;-80
2022/04/25 02:25:06;;;;;;;13.73;6.90;;;;;;;6.66;75.59;100817.09;5032116;28;20127;-80
2022/04/25 02:27:31;;;;;;;14.38;7.07;;;;;;;6.62;74.89;100809.22;5048604;28;20051;-80
2022/04/25 02:29:59;;;;;;;13.95;7.93;;;;;;;6.61;74.82;100816.25;5015647;28;20025;-80
2022/04/25 02:32:27;;;;;;;11.95;7.18;;;;;;;6.60;75.37;100817.13;5049918;28;20037;-80
2022/04/25 02:34:54;;;;;;;11.80;7.40;;;;;;;6.59;76.47;100817.13;5016376;28;20070;-80
2022/04/25 02:37:23;;;;;;;13.82;7.40;;;;;;;6.52;75.63;100818.91;5052013;28;20127;-80
2022/04/25 02:39:49;;;;;;;12.88;7.00;;;;;;;6.51;76.19;100822.44;5035699;28;20545;-80
2022/04/25 02:42:15;;;;;;;14.75;7.68;;;;;;;6.47;76.46;100811.03;5052046;28;20098;-80
2022/04/25 02:44:40;;;;;;;13.73;7.85;;;;;;;6.49;75.72;100808.41;5035703;28;20028;-80
2022/04/25 02:47:06;;;;;;;12.57;7.63;;;;;;;6.47;76.03;100818.94;5052185;28;20119;-80
2022/04/25 02:49:31;;;;;;;13.90;7.45;;;;;;;6.44;76.44;100807.56;5035515;28;20064;-80
2022/04/25 02:51:57;;;;;;;11.23;7.75;;;;;;;6.43;76.44;100811.09;5053552;28;20132;-80
2022/04/25 02:54:22;;;;;;;15.20;7.70;;;;;;;6.41;76.37;100810.22;5053078;28;20233;-80
2022/04/25 02:56:48;;;;;;;12.00;7.78;;;;;;;6.41;76.44;100811.09;5034746;28;20021;-80
2022/04/25 02:59:14;;;;;;;10.32;7.05;;;;;;;6.40;76.97;100809.31;5033019;28;20049;-80
2022/04/25 03:01:40;;;;;;;14.73;8.40;;;;;;;6.41;77.23;100805.84;5027870;28;20041;-80
2022/04/25 03:04:07;;;;;;;17.15;7.80;;;;;;;6.40;77.28;100811.97;5034024;28;20041;-80
2022/04/25 03:06:32;;;;;;;11.73;8.00;;;;;;;6.37;77.03;100805.84;5036495;28;20477;-80
2022/04/25 03:08:58;;;;;;;14.85;8.23;;;;;;;6.35;76.85;100812.88;5051336;28;20102;-80
2022/04/25 03:11:25;;;;;;;15.02;8.13;;;;;;;6.34;77.20;100813.78;5053436;28;20036;-80
2022/04/25 03:13:52;;;;;;;11.20;7.10;;;;;;;6.34;77.18;100813.78;5035192;28;20056;-80
2022/04/25 03:16:19;;;;;;;13.70;8.23;;;;;;;6.32;76.37;100808.50;5051625;28;20104;-80
2022/04/25 03:18:44;;;;;;;16.58;8.88;;;;;;;6.30;77.87;100812.03;5048222;28;20112;-80
2022/04/25 03:21:10;;;;;;;11.23;7.35;;;;;;;6.28;78.08;100811.16;5014876;28;20095;-80
2022/04/25 03:23:36;;;;;;;15.63;8.10;;;;;;;6.25;77.76;100809.41;5031105;28;20102;-80
2022/04/25 03:26:02;;;;;;;17.38;8.20;;;;;;;6.24;77.39;100812.94;5015134;28;20030;-80
2022/04/25 03:28:27;;;;;;;15.07;8.07;;;;;;;6.23;77.80;100817.31;5032517;28;20068;-80
2022/04/25 03:30:53;;;;;;;21.17;8.23;;;;;;;6.20;76.34;100819.94;5031371;28;20034;-80
2022/04/25 03:33:19;;;;;;;16.35;8.20;;;;;;;6.17;76.82;100817.34;5031307;28;20422;-80
2022/04/25 03:35:46;;;;;;;13.10;8.30;;;;;;;6.15;77.29;100811.22;5031477;28;20049;-80
2022/04/25 03:38:13;;;;;;;12.68;7.75;;;;;;;6.14;77.64;100819.13;5031076;28;20456;-80
2022/04/25 03:40:38;;;;;;;15.35;7.80;;;;;;;6.12;76.73;100827.00;5032860;28;20056;-80
2022/04/25 03:43:07;;;;;;;15.93;8.48;;;;;;;6.09;77.56;100826.16;5014490;28;20160;-80
2022/04/25 03:45:33;;;;;;;14.80;8.20;;;;;;;6.07;76.97;100828.78;5032798;28;20044;-80
2022/04/25 03:47:59;;;;;;;14.55;7.90;;;;;;;6.06;77.20;100829.66;5031103;28;20044;-80
2022/04/25 03:50:25;;;;;;;17.15;8.00;;;;;;;6.02;77.41;100826.16;5031346;28;20041;-80
2022/04/25 03:52:50;;;;;;;12.73;8.40;;;;;;;6.00;77.40;100825.28;5014414;28;20041;-80
2022/04/25 03:58:02;;;;;;;15.70;8.68;;;;;;;5.97;77.11;100835.81;5032117;28;20029;-79
2022/04/25 04:00:29;;;;;;;17.25;8.57;;;;;;;5.94;77.00;100841.09;5033598;28;20037;-80
2022/04/25 04:02:57;;;;;;;13.77;8.00;;;;;;;5.90;76.95;100833.19;5039456;28;20032;-80
2022/04/25 04:05:23;;;;;;;11.93;8.20;;;;;;;5.89;76.98;100832.31;5052139;28;20040;-80
2022/04/25 04:07:49;;;;;;;17.48;8.93;;;;;;;5.84;79.66;100834.09;5035402;28;20503;-80
2022/04/25 04:10:16;;;;;;;14.50;8.20;;;;;;;5.83;79.11;100842.81;5032519;28;20146;-80
2022/04/25 04:12:42;;;;;;;13.38;8.98;;;;;;;5.82;78.47;100841.94;5030461;28;20097;-80
2022/04/25 04:15:08;;;;;;;17.25;9.27;;;;;;;5.80;78.81;100846.34;5031944;28;20112;-80
2022/04/25 04:17:34;;;;;;;13.75;8.55;;;;;;;5.81;78.30;100848.09;5031861;28;20068;-80
2022/04/25 04:20:02;;;;;;;19.45;9.77;;;;;;;5.80;78.67;100848.09;5046172;28;20040;-80
2022/04/25 04:22:31;;;;;;;14.82;9.55;;;;;;;5.78;79.02;100852.47;5051605;28;20128;-80
2022/04/25 04:25:01;;;;;;;14.25;9.63;;;;;;;5.72;79.42;100842.00;5033721;28;20043;-80
2022/04/25 04:27:29;;;;;;;20.38;10.63;;;;;;;5.72;79.52;100852.50;5051500;28;20041;-80
2022/04/25 04:29:55;;;;;;;21.20;10.52;;;;;;;5.70;79.48;100854.25;5050418;28;20127;-80
2022/04/25 04:32:21;;;;;;;20.05;10.38;;;;;;;5.67;79.73;100849.88;5033349;28;20160;-80
2022/04/25 04:34:46;;;;;;;17.33;10.95;;;;;;;5.65;80.91;100859.50;5051445;28;20123;-80
2022/04/25 04:37:11;;;;;;;16.23;10.75;;;;;;;5.64;80.17;100859.50;5049883;28;20041;-79
2022/04/25 04:39:37;;;;;;;15.55;9.00;;;;;;;5.63;80.06;100870.91;5049861;28;20043;-80
2022/04/25 04:42:03;;;;;;;16.10;10.63;;;;;;;5.59;80.92;100867.41;5017126;28;20152;-79
2022/04/25 04:44:28;;;;;;;15.38;9.18;;;;;;;5.59;81.00;100867.41;5049896;28;20045;-80
2022/04/25 04:46:54;;;;;;;15.20;9.25;;;;;;;5.62;80.68;100871.78;5051304;28;20104;-80
2022/04/25 04:49:19;;;;;;;16.63;10.00;;;;;;;5.62;80.76;100874.41;5033091;28;20468;-80
2022/04/25 04:51:45;;;;;;;21.08;10.27;;;;;;;5.63;80.70;100871.75;5050032;28;20040;-80
2022/04/25 04:54:10;;;;;;;16.98;10.68;;;;;;;5.65;81.14;100872.63;5049367;28;20044;-80
2022/04/25 04:56:36;;;;;;;17.90;9.98;;;;;;;5.69;81.61;100876.16;5017427;28;20038;-80
2022/04/25 04:59:02;;;;;;;14.38;10.40;;;;;;;5.70;81.79;100876.13;5029018;28;20496;-80
2022/04/25 05:01:28;;;;;;;14.80;9.63;;;;;;;5.74;81.87;100874.41;5033769;28;20107;-80
2022/04/25 05:03:58;;;;;;;17.50;10.55;;;;;;;5.77;82.01;100874.38;5046382;28;20076;-80
2022/04/25 05:06:25;;;;;;;17.33;10.45;;;;;;;5.79;81.97;100877.88;5029828;28;20037;-80
2022/04/25 05:08:51;;;;;;;14.57;9.65;;;;;;;5.85;81.88;100879.63;5013821;28;20051;-80
2022/04/25 05:11:16;;;;;;;18.42;10.43;;;;;;;5.88;81.79;100885.75;5031159;28;20483;-80
2022/04/25 05:13:42;;;;;;;22.85;11.70;;;;;;;5.92;81.94;100887.50;5029550;28;20053;-80
2022/04/25 05:16:07;;;;;;;18.38;10.40;;;;;;;5.99;82.08;100893.66;5013273;28;20124;-80
2022/04/25 05:18:33;;;;;;;20.27;10.15;;;;;;;6.06;81.89;100897.13;5033118;28;20043;-80
2022/04/25 05:21:04;;;;;;;17.10;10.40;;;;;;;6.11;82.22;100896.25;5049794;28;20071;-80
2022/04/25 05:23:31;;;;;;;15.70;10.00;;;;;;;6.16;81.96;100894.47;5049131;28;20035;-80
2022/04/25 05:25:56;;;;;;;19.02;10.73;;;;;;;6.21;82.36;100899.72;5051231;28;20055;-80
2022/04/25 05:28:22;;;;;;;16.42;11.30;;;;;;;6.27;81.79;100906.72;5032913;28;20041;-80
2022/04/25 05:30:49;;;;;;;14.88;11.35;;;;;;;6.33;82.41;100910.22;5051085;28;20053;-80
2022/04/25 05:33:17;;;;;;;17.33;10.55;;;;;;;6.37;82.29;100914.56;5032818;28;20137;-80
2022/04/25 05:35:43;;;;;;;21.20;11.30;;;;;;;6.42;82.10;100912.78;5049745;28;20078;-80
2022/04/25 05:38:10;;;;;;;17.08;10.65;;;;;;;6.46;82.36;100917.16;5032593;28;20420;-80
2022/04/25 05:40:36;;;;;;;16.42;10.27;;;;;;;6.51;81.66;100909.25;5033092;28;20103;-80
2022/04/25 05:43:04;;;;;;;18.70;11.32;;;;;;;6.57;82.17;100926.78;5032614;28;20465;-80
2022/04/25 05:45:30;;;;;;;19.33;10.65;;;;;;;6.62;82.04;100922.38;5049370;28;20047;-80
2022/04/25 05:47:57;;;;;;;20.52;11.30;;;;;;;6.68;81.88;100927.63;5032655;28;20102;-80
2022/04/25 05:53:12;;;;;;;15.88;10.90;;;;;;;6.79;81.33;100930.19;5049137;28;20094;-80
2022/04/25 05:55:38;;;;;;;19.10;11.65;;;;;;;6.85;81.10;100925.78;5042271;28;20035;-80
2022/04/25 05:58:06;;;;;;;18.75;11.35;;;;;;;6.93;81.60;100930.13;5045612;28;20377;-80
2022/04/25 06:00:33;;;;;;;17.50;11.55;;;;;;;7.00;82.01;100937.97;5033907;28;20044;-80
2022/04/25 06:03:00;;;;;;;19.23;11.27;;;;;;;7.06;81.54;100935.28;5039641;28;20095;-80
2022/04/25 06:05:25;;;;;;;19.25;11.75;;;;;;;7.16;81.84;100930.84;5049234;28;20072;-80
2022/04/25 06:07:51;;;;;;;18.27;11.77;;;;;;;7.19;81.13;100933.47;5033965;28;20060;-80
2022/04/25 06:10:18;;;;;;;18.75;10.95;;;;;;;7.26;81.32;100939.56;5031692;28;20116;-80
2022/04/25 06:12:50;;;;;;;17.02;11.35;;;;;;;7.30;81.56;100942.19;5032591;28;20083;-80
2022/04/25 06:15:17;;;;;;;18.75;11.38;;;;;;;7.35;81.00;100943.91;5032853;28;20037;-81
2022/04/25 06:17:42;;;;;;;22.35;11.43;;;;;;;7.41;80.81;100952.63;5032458;28;20041;-80
2022/04/25 06:20:09;;;;;;;23.48;13.15;;;;;;;7.44;81.31;100949.09;5032826;28;20474;-81
2022/04/25 06:22:37;;;;;;;21.50;12.52;;;;;;;7.48;81.16;100951.69;5034035;28;20091;-81
2022/04/25 06:25:03;;;;;;;19.48;11.95;;;;;;;7.52;81.28;100945.53;5034145;28;20187;-80
2022/04/25 06:27:29;;;;;;;20.42;12.63;;;;;;;7.59;80.66;100942.84;5034066;28;20042;-80
2022/04/25 06:29:56;;;;;;;20.85;12.75;;;;;;;7.65;80.99;100941.03;5032832;28;20041;-81
2022/04/25 06:32:22;;;;;;;27.02;12.73;;;;;;;7.74;81.53;100942.72;5016177;28;20128;-81
2022/04/25 06:34:48;;;;;;;18.95;11.88;;;;;;;7.80;80.42;100944.44;5032495;28;20124;-81
2022/04/25 06:37:14;;;;;;;18.67;13.30;;;;;;;7.85;80.34;100948.78;5033640;28;20372;-81
2022/04/25 06:39:39;;;;;;;21.05;12.80;;;;;;;7.92;80.48;100949.59;5016031;28;20444;-81
2022/04/25 06:42:05;;;;;;;19.58;13.25;;;;;;;7.96;80.24;100960.09;4999541;28;20401;-81
2022/04/25 06:44:31;;;;;;;23.75;11.48;;;;;;;8.04;79.85;100957.41;5032191;28;20220;-81
2022/04/25 06:46:57;;;;;;;17.55;12.75;;;;;;;8.10;80.33;100954.69;4983389;28;20061;-81
2022/04/25 06:49:25;;;;;;;23.20;12.80;;;;;;;8.15;79.05;100952.88;4999684;28;20042;-81
2022/04/25 06:51:58;;;;;;;23.88;14.10;;;;;;;8.17;79.63;100952.88;5032258;28;20049;-81
2022/04/25 06:54:25;;;;;;;25.17;12.88;;;;;;;8.20;79.65;100955.47;5033552;28;20033;-81
2022/04/25 06:56:52;;;;;;;17.23;12.43;;;;;;;8.24;79.54;100951.06;5032083;28;20052;-81
2022/04/25 06:59:19;;;;;;;23.42;13.50;;;;;;;8.25;79.07;100964.22;5031918;28;20068;-81
2022/04/25 07:01:45;;;;;;;19.17;13.38;;;;;;;8.29;78.88;100967.72;5031309;28;20091;-81
2022/04/25 07:04:13;;;;;;;22.63;13.50;;;;;;;8.31;79.16;100956.25;5052340;28;20039;-81
2022/04/25 07:06:39;;;;;;;18.95;13.05;;;;;;;8.37;78.79;100958.81;5029442;28;20038;-81
2022/04/25 07:09:06;;;;;;;23.52;15.05;;;;;;;8.44;79.16;100966.69;5031804;28;20107;-81
2022/04/25 07:11:33;;;;;;;27.38;14.60;;;;;;;8.46;78.75;100968.44;5031947;28;20400;-81
2022/04/25 07:13:59;;;;;;;21.02;13.85;;;;;;;8.54;79.00;100982.41;5031610;28;20048;-81
2022/04/25 07:16:25;;;;;;;20.83;14.73;;;;;;;8.59;78.16;100971.78;5021400;28;20032;-81
2022/04/25 07:18:51;;;;;;;21.98;14.15;;;;;;;8.61;77.98;100980.59;5035085;28;20119;-81
2022/04/25 07:29:29;;;;;;;17.60;13.18;;;;;;;8.63;78.30;100977.91;5051744;28;20446;-81
2022/04/25 07:31:55;;;;;;;20.00;14.00;;;;;;;8.64;78.54;100979.66;5051493;28;20170;-81
2022/04/25 07:34:21;;;;;;;20.30;13.68;;;;;;;8.67;78.22;100979.63;5052653;28;20099;-81
2022/04/25 07:36:54;;;;;;;24.73;14.25;;;;;;;8.69;78.74;100986.63;5052702;28;20132;-81
2022/04/25 07:39:22;;;;;;;24.20;14.93;;;;;;;8.66;79.13;100988.44;5051144;28;20048;-81
2022/04/25 07:41:49;;;;;;;24.35;14.82;;;;;;;8.67;79.16;100990.19;5051491;28;20454;-81
2022/04/25 07:44:16;;;;;;;20.48;14.25;;;;;;;8.65;79.54;100997.25;5052469;28;20068;-81
2022/04/25 07:46:42;;;;;;;21.85;14.95;;;;;;;8.61;79.71;100994.66;5053075;28;20028;-80
2022/04/25 07:49:09;;;;;;;20.40;15.10;;;;;;;8.59;79.36;100996.44;5052682;28;20033;-80
2022/04/25 07:51:36;;;;;;;18.27;13.52;;;;;;;8.58;78.60;100997.31;5051375;28;20035;-80
2022/04/25 07:54:04;;;;;;;26.75;15.52;;;;;;;8.54;79.74;101000.00;5034190;28;20044;-80
2022/04/25 07:56:31;;;;;;;24.92;15.13;;;;;;;8.53;80.26;101000.88;5018825;28;20037;-80
2022/04/25 07:58:58;;;;;;;22.05;15.63;;;;;;;8.50;80.53;101007.06;5050947;28;20085;-80
2022/04/25 08:01:24;;;;;;;28.75;17.38;;;;;;;8.47;80.76;101008.88;5041128;28;20064;-80
2022/04/25 08:03:49;;;;;;;24.98;15.90;;;;;;;8.46;81.65;101004.50;5047866;28;20040;-80
2022/04/25 08:06:15;;;;;;;25.58;16.60;;;;;;;8.44;80.93;101016.84;5047855;28;20037;-80
2022/04/25 08:08:41;;;;;;;23.50;17.27;;;;;;;8.41;81.20;101020.38;5032825;28;20083;-80
2022/04/25 08:11:07;;;;;;;24.63;17.42;;;;;;;8.40;81.12;101010.72;5032484;28;20080;-80
2022/04/25 08:19:00;;;;;;;26.33;18.50;;;;;;;8.35;82.50;101020.41;5050946;28;20132;-79
2022/04/25 08:21:25;;;;;;;27.05;16.63;;;;;;;8.34;81.75;101026.59;5052310;28;20037;-79
2022/04/25 08:23:51;;;;;;;30.90;19.10;;;;;;;8.34;82.76;101026.59;5050597;28;20033;-79
2022/04/25 08:26:16;;;;;;;31.83;18.88;;;;;;;8.34;83.67;101030.09;5050995;28;20037;-79
2022/04/25 08:28:42;;;;;;;28.02;18.67;;;;;;;8.34;83.58;101034.50;5050521;28;20113;-79
2022/04/25 08:31:09;;;;;;;28.52;19.90;;;;;;;8.32;83.99;101029.22;5034460;28;20534;-79
2022/04/25 08:33:36;;;;;;;29.15;18.98;;;;;;;8.32;83.70;101028.34;5033365;28;20455;-79
2022/04/25 08:36:03;;;;;;;30.08;20.63;;;;;;;8.35;84.34;101039.75;5050606;28;20032;-79
2022/04/25 08:38:29;;;;;;;29.27;20.30;;;;;;;8.38;84.75;101038.84;5050527;28;20044;-79
2022/04/25 08:40:55;;;;;;;26.05;19.58;;;;;;;8.43;84.75;101042.34;5033854;28;20111;-79
2022/04/25 08:43:23;;;;;;;30.35;20.38;;;;;;;8.42;84.51;101037.09;5050198;28;20469;-80
2022/04/25 08:45:51;;;;;;;29.30;20.02;;;;;;;8.45;84.08;101045.84;5050348;28;20111;-80
2022/04/25 08:48:19;;;;;;;30.08;20.15;;;;;;;8.47;84.41;101045.84;5051450;28;20395;-80
2022/04/25 08:50:47;;;;;;;27.65;19.45;;;;;;;8.48;84.14;101048.47;5050022;28;20065;-80
2022/04/25 08:53:13;;;;;;;28.65;20.63;;;;;;;8.51;84.18;101055.47;5049718;28;20079;-80
2022/04/25 08:55:40;;;;;;;27.90;20.20;;;;;;;8.56;85.18;101053.66;5050072;28;20064;-80
2022/04/25 08:58:06;;;;;;;31.95;21.52;;;;;;;8.60;85.04;101052.72;5050704;28;20041;-80
2022/04/25 09:00:32;;;;;;;32.95;20.83;;;;;;;8.67;85.41;101061.47;5043733;28;20030;-80
2022/04/25 09:02:58;;;;;;;25.23;20.08;;;;;;;8.71;84.96;101063.19;5039611;28;20365;-80
2022/04/25 09:05:26;;;;;;;28.50;21.33;;;;;;;8.74;85.01;101065.78;5013511;28;20147;-80
2022/04/25 09:07:53;;;;;;;32.33;22.52;;;;;;;8.78;85.81;101068.41;5048148;28;20036;-80
2022/04/25 09:10:20;;;;;;;31.85;21.02;;;;;;;8.83;85.41;101076.28;5049822;28;20052;-80
2022/04/25 09:12:47;;;;;;;27.45;19.77;;;;;;;8.83;85.66;101071.84;5050619;28;20238;-80
2022/04/25 09:15:17;;;;;;;30.95;20.58;;;;;;;8.87;84.67;101075.31;5033056;28;20033;-80
2022/04/25 09:17:42;;;;;;;29.55;21.00;;;;;;;8.91;85.22;101078.81;5049371;28;20257;-80
2022/04/25 09:20:09;;;;;;;29.67;21.92;;;;;;;8.94;85.05;101081.41;5049637;28;20157;-80
2022/04/25 09:22:39;;;;;;;28.55;21.25;;;;;;;8.97;84.69;101090.16;5050863;28;20032;-80
2022/04/25 09:25:09;;;;;;;26.13;18.77;;;;;;;9.00;83.88;101076.94;5049442;28;20086;-80
2022/04/25 09:27:35;;;;;;;23.85;17.15;;;;;;;9.04;84.79;101085.69;5050724;28;20025;-80
2022/04/25 09:30:16;;;;;;;19.20;15.25;;;;;;;9.07;82.71;101085.66;5032956;28;20032;-80
2022/04/25 09:32:43;;;;;;;20.08;14.55;;;;;;;9.10;83.76;101085.66;5049283;28;20052;-80
2022/04/25 09:35:24;;;;;;;20.35;15.10;;;;;;;9.20;83.95;101087.28;5051006;28;20114;-80
2022/04/25 09:37:51;;;;;;;20.75;14.82;;;;;;;9.26;83.76;101089.84;5032513;28;20048;-80
2022/04/25 09:40:23;;;;;;;22.02;15.07;;;;;;;9.32;83.96;101093.28;5016476;28;20041;-80
2022/04/25 09:43:06;;;;;;;17.33;13.68;;;;;;;9.34;82.44;101089.72;5049096;28;20041;-81
2022/04/25 09:45:34;;;;;;;18.33;13.70;;;;;;;9.35;83.41;101094.13;5052717;28;20443;-81
2022/04/25 09:47:59;;;;;;;16.20;14.15;;;;;;;9.37;83.66;101094.09;5053599;28;20033;-81
2022/04/25 09:50:28;;;;;;;17.48;14.18;;;;;;;9.35;83.28;101098.56;5025388;28;20127;-80
2022/04/25 09:52:57;;;;;;;17.25;13.40;;;;;;;9.28;83.25;101100.41;5033217;28;20048;-81
2022/04/25 09:55:26;;;;;;;18.38;13.30;;;;;;;9.25;83.35;101100.44;5033579;28;20048;-80
2022/04/25 09:57:52;;;;;;;19.35;13.35;;;;;;;9.22;82.82;101105.75;5034822;28;20043;-81
2022/04/25 10:00:36;;;;;;;15.65;13.40;;;;;;;9.19;82.42;101103.13;5033428;28;20041;-81
2022/04/25 10:03:06;;;;;;;16.90;13.30;;;;;;;9.17;81.45;101103.19;5043839;28;20048;-81
2022/04/25 10:05:49;;;;;;;18.88;12.45;;;;;;;9.20;82.38;101108.41;5039302;28;20057;-80
2022/04/25 10:08:17;;;;;;;16.27;13.13;;;;;;;9.21;82.94;101109.28;5034302;28;20029;-80
2022/04/25 10:10:51;;;;;;;19.85;12.95;;;;;;;9.21;82.64;101117.22;5016823;28;20128;-80
2022/04/25 10:13:17;;;;;;;16.83;12.45;;;;;;;9.20;82.28;101115.47;5032617;28;20079;-81
2022/04/25 10:15:44;;;;;;;20.02;12.77;;;;;;;9.18;82.12;101122.53;5033002;28;20087;-80
2022/04/25 10:18:10;;;;;;;18.80;12.90;;;;;;;9.17;83.18;101123.41;5034069;28;20107;-79
2022/04/25 10:20:37;;;;;;;18.30;12.32;;;;;;;9.20;83.46;101118.13;5034412;28;20124;-79
2022/04/25 10:23:10;;;;;;;18.20;12.80;;;;;;;9.26;83.46;101118.91;5034080;28;20028;-80
2022/04/25 10:25:38;;;;;;;19.15;12.65;;;;;;;9.32;83.06;101122.34;5034041;28;20487;-80
2022/04/25 10:28:07;;;;;;;17.85;13.25;;;;;;;9.39;83.26;101131.97;5032709;28;20124;-80
2022/04/25 10:30:34;;;;;;;16.92;12.20;;;;;;;9.47;83.12;101122.19;5034056;28;20041;-81
2022/04/25 10:33:12;;;;;;;14.52;11.38;;;;;;;9.57;82.02;101133.50;5032691;28;20550;-80
2022/04/25 10:35:37;;;;;;;17.95;12.70;;;;;;;9.61;80.60;101135.22;5032735;28;20103;-80
2022/04/25 10:38:50;;;;;;;18.52;12.57;;;;;;;9.62;80.73;101132.56;5033671;28;20525;-80
2022/04/25 10:44:17;;;;;;;19.13;12.13;;;;;;;9.72;80.18;101145.63;5032043;28;20040;-81
2022/04/25 10:47:09;;;;;;;18.20;13.32;;;;;;;9.76;80.05;101150.00;5032687;28;20033;-81
2022/04/25 10:49:36;;;;;;;18.80;13.15;;;;;;;9.72;80.22;101146.53;5032225;28;20022;-80
2022/04/25 10:52:03;;;;;;;18.30;12.60;;;;;;;9.71;80.84;101144.78;5032321;28;20057;-81
2022/04/25 10:54:46;;;;;;;17.48;13.55;;;;;;;9.74;80.84;101150.00;5033536;28;20040;-81
2022/04/25 10:57:16;;;;;;;17.45;13.80;;;;;;;9.77;81.59;101154.41;5031378;28;20477;-81
2022/04/25 10:59:42;;;;;;;18.75;13.35;;;;;;;9.74;80.75;101155.31;5031688;28;20092;-80
2022/04/25 11:02:25;;;;;;;16.15;13.07;;;;;;;9.70;80.72;101153.63;5035679;28;20057;-81
2022/04/25 11:05:09;;;;;;;20.55;14.13;;;;;;;9.67;80.37;101167.75;5015620;28;20026;-81
2022/04/25 11:07:35;;;;;;;21.70;14.40;;;;;;;9.64;81.00;101164.25;5048341;28;20053;-80
2022/04/25 11:10:01;;;;;;;20.98;13.85;;;;;;;9.61;81.38;101157.22;5035252;28;20040;-80
2022/04/25 11:12:56;;;;;;;22.15;15.05;;;;;;;9.65;81.55;101160.72;5053241;28;20040;-80
2022/04/25 11:15:40;;;;;;;17.50;13.88;;;;;;;9.68;80.35;101164.19;5035265;28;20056;-80
2022/04/25 11:18:33;;;;;;;21.60;14.95;;;;;;;9.65;80.66;101168.66;5015194;28;20480;-80
2022/04/25 11:21:16;;;;;;;21.80;14.77;;;;;;;9.60;80.64;101168.72;5031935;28;20051;-80
2022/04/25 11:23:44;;;;;;;19.00;13.73;;;;;;;9.61;79.10;101175.75;5031457;28;20041;-80
2022/04/25 11:26:23;;;;;;;21.52;15.25;;;;;;;9.61;80.80;101172.22;5031725;28;20069;-80
2022/04/25 11:28:55;;;;;;;22.85;15.35;;;;;;;9.61;80.86;101173.09;5015051;28;20132;-80
2022/04/25 11:31:25;;;;;;;22.60;16.13;;;;;;;9.65;81.31;101179.25;5015169;28;20040;-80
2022/04/25 11:34:01;;;;;;;22.00;15.98;;;;;;;9.64;81.07;101175.72;5032557;28;20096;-80
2022/04/25 11:36:29;;;;;;;23.80;15.27;;;;;;;9.68;81.33;101185.34;5031533;28;20037;-80
2022/04/25 11:41:44;;;;;;;21.33;16.02;;;;;;;9.75;81.12;101186.16;5032777;28;20187;-81
2022/04/25 11:44:09;;;;;;;21.40;16.35;;;;;;;9.79;81.65;101185.25;5031109;28;20052;-81
2022/04/25 11:46:37;;;;;;;23.52;16.92;;;;;;;9.87;82.70;101187.78;5014829;28;20454;-81
2022/04/25 11:49:05;;;;;;;24.80;17.20;;;;;;;9.95;82.88;101192.97;5014528;28;20041;-81
2022/04/25 11:51:39;;;;;;;22.65;16.33;;;;;;;9.98;81.94;101187.63;5031476;28;20403;-82
2022/04/25 11:54:06;;;;;;;21.27;15.85;;;;;;;10.02;81.09;101192.84;5032292;28;20048;-82